sensor_id;sensor_type;location;lat;lon;timestamp;pressure;altitude;pressure_sealevel;temperature;humidity
48652;BME280;34442;52.362;-1.302;2023-01-26T00:02:02;101684.75;;;4.08;100.00
48652;BME280;34442;52.362;-1.302;2023-01-26T00:04:27;101687.94;;;4.11;100.00
48652;BME280;34442;52.362;-1.302;2023-01-26T00:06:52;101686.28;;;4.10;100.00
48652;BME280;34442;52.362;-1.302;2023-01-26T00:09:18;101682.34;;;4.05;100.00
48652;BME280;34442;52.362;-1.302;2023-01-26T00:11:43;101679.78;;;4.03;100.00
48652;BME280;34442;52.362;-1.302;2023-01-26T00:14:09;101682.56;;;4.22;100.00
48652;BME280;34442;52.362;-1.302;2023-01-26T00:16:34;101674.56;;;4.22;100.00
48652;BME280;34442;52.362;-1.302;2023-01-26T00:19:00;101677.13;;;4.24;100.00
48652;BME280;34442;52.362;-1.302;2023-01-26T00:21:26;101673.19;;;3.97;100.00
48652;BME280;34442;52.362;-1.302;2023-01-26T00:23:52;101678.06;;;3.92;100.00
48652;BME280;34442;52.362;-1.302;2023-01-26T00:26:23;101682.53;;;3.92;100.00
48652;BME280;34442;52.362;-1.302;2023-01-26T00:28:49;101676.50;;;3.90;100.00
48652;BME280;34442;52.362;-1.302;2023-01-26T00:31:17;101665.03;;;3.89;100.00
48652;BME280;34442;52.362;-1.302;2023-01-26T00:33:44;101675.06;;;3.86;100.00
48652;BME280;34442;52.362;-1.302;2023-01-26T00:36:12;101672.69;;;3.83;100.00
48652;BME280;34442;52.362;-1.302;2023-01-26T00:38:39;101672.81;;;3.81;100.00
48652;BME280;34442;52.362;-1.302;2023-01-26T00:41:05;101668.84;;;3.96;100.00
48652;BME280;34442;52.362;-1.302;2023-01-26T00:43:30;101671.50;;;3.96;100.00
48652;BME280;34442;52.362;-1.302;2023-01-26T00:45:56;101677.53;;;3.98;100.00
48652;BME280;34442;52.362;-1.302;2023-01-26T00:48:21;101679.50;;;3.96;100.00
48652;BME280;34442;52.362;-1.302;2023-01-26T00:50:49;101683.81;;;3.97;100.00
48652;BME280;34442;52.362;-1.302;2023-01-26T00:53:15;101683.53;;;3.91;100.00
48652;BME280;34442;52.362;-1.302;2023-01-26T00:55:41;101684.91;;;3.95;100.00
48652;BME280;34442;52.362;-1.302;2023-01-26T00:58:07;101676.25;;;3.93;100.00
48652;BME280;34442;52.362;-1.302;2023-01-26T01:00:35;101682.53;;;3.92;100.00
48652;BME280;34442;52.362;-1.302;2023-01-26T01:03:01;101677.88;;;3.84;100.00
48652;BME280;34442;52.362;-1.302;2023-01-26T01:05:29;101680.69;;;3.83;100.00
48652;BME280;34442;52.362;-1.302;2023-01-26T01:07:55;101683.16;;;3.75;100.00
48652;BME280;34442;52.362;-1.302;2023-01-26T01:10:24;101688.72;;;3.71;100.00
48652;BME280;34442;52.362;-1.302;2023-01-26T01:12:51;101676.84;;;3.76;100.00
48652;BME280;34442;52.362;-1.302;2023-01-26T01:15:17;101681.31;;;3.75;100.00
48652;BME280;34442;52.362;-1.302;2023-01-26T01:17:42;101679.09;;;3.80;100.00
48652;BME280;34442;52.362;-1.302;2023-01-26T01:20:09;101684.81;;;3.76;100.00
48652;BME280;34442;52.362;-1.302;2023-01-26T01:22:35;101692.81;;;3.76;100.00
48652;BME280;34442;52.362;-1.302;2023-01-26T01:25:02;101687.88;;;3.71;100.00
48652;BME280;34442;52.362;-1.302;2023-01-26T01:27:27;101690.53;;;3.71;100.00
48652;BME280;34442;52.362;-1.302;2023-01-26T01:29:53;101682.81;;;3.68;100.00
48652;BME280;34442;52.362;-1.302;2023-01-26T01:32:19;101687.53;;;3.64;100.00
48652;BME280;34442;52.362;-1.302;2023-01-26T01:34:48;101688.53;;;3.63;100.00
48652;BME280;34442;52.362;-1.302;2023-01-26T01:37:15;101688.78;;;3.60;100.00
48652;BME280;34442;52.362;-1.302;2023-01-26T01:39:41;101695.66;;;3.63;100.00
48652;BME280;34442;52.362;-1.302;2023-01-26T01:42:06;101690.34;;;3.63;100.00
48652;BME280;34442;52.362;-1.302;2023-01-26T01:44:36;101681.03;;;3.57;100.00
48652;BME280;34442;52.362;-1.302;2023-01-26T01:47:11;101689.00;;;3.57;100.00
48652;BME280;34442;52.362;-1.302;2023-01-26T01:49:44;101689.28;;;3.54;100.00
48652;BME280;34442;52.362;-1.302;2023-01-26T01:52:31;101695.56;;;3.53;100.00
48652;BME280;34442;52.362;-1.302;2023-01-26T01:55:07;101694.63;;;3.54;100.00
48652;BME280;34442;52.362;-1.302;2023-01-26T01:57:44;101705.28;;;3.43;100.00
48652;BME280;34442;52.362;-1.302;2023-01-26T02:00:14;101696.28;;;3.34;100.00
48652;BME280;34442;52.362;-1.302;2023-01-26T02:02:42;101694.31;;;3.36;100.00
48652;BME280;34442;52.362;-1.302;2023-01-26T02:05:26;101694.66;;;3.43;100.00
48652;BME280;34442;52.362;-1.302;2023-01-26T02:07:56;101691.41;;;3.39;100.00
48652;BME280;34442;52.362;-1.302;2023-01-26T02:10:22;101697.94;;;3.03;100.00
48652;BME280;34442;52.362;-1.302;2023-01-26T02:12:51;101691.91;;;3.01;100.00
48652;BME280;34442;52.362;-1.302;2023-01-26T02:15:17;101699.38;;;2.96;100.00
48652;BME280;34442;52.362;-1.302;2023-01-26T02:17:43;101702.78;;;2.98;100.00
48652;BME280;34442;52.362;-1.302;2023-01-26T02:20:21;101701.03;;;3.19;100.00
48652;BME280;34442;52.362;-1.302;2023-01-26T02:27:52;101685.81;;;3.21;100.00
48652;BME280;34442;52.362;-1.302;2023-01-26T02:30:18;101699.47;;;3.17;100.00
48652;BME280;34442;52.362;-1.302;2023-01-26T02:32:45;101689.63;;;2.96;100.00
48652;BME280;34442;52.362;-1.302;2023-01-26T02:35:11;101703.69;;;3.19;100.00
48652;BME280;34442;52.362;-1.302;2023-01-26T02:37:36;101705.47;;;3.30;100.00
48652;BME280;34442;52.362;-1.302;2023-01-26T02:40:09;101694.63;;;3.22;100.00
48652;BME280;34442;52.362;-1.302;2023-01-26T02:42:38;101697.03;;;3.25;100.00
48652;BME280;34442;52.362;-1.302;2023-01-26T02:45:13;101701.41;;;3.15;100.00
48652;BME280;34442;52.362;-1.302;2023-01-26T02:47:39;101699.75;;;3.03;100.00
48652;BME280;34442;52.362;-1.302;2023-01-26T02:50:06;101705.13;;;3.12;100.00
48652;BME280;34442;52.362;-1.302;2023-01-26T02:52:32;101713.00;;;3.14;100.00
48652;BME280;34442;52.362;-1.302;2023-01-26T02:54:58;101711.44;;;3.11;100.00
48652;BME280;34442;52.362;-1.302;2023-01-26T02:57:42;101722.66;;;3.15;100.00
48652;BME280;34442;52.362;-1.302;2023-01-26T03:00:20;101720.47;;;3.20;100.00
48652;BME280;34442;52.362;-1.302;2023-01-26T03:02:47;101716.50;;;3.14;100.00
48652;BME280;34442;52.362;-1.302;2023-01-26T03:05:13;101716.38;;;3.16;100.00
48652;BME280;34442;52.362;-1.302;2023-01-26T03:07:39;101714.81;;;3.13;100.00
48652;BME280;34442;52.362;-1.302;2023-01-26T03:10:05;101714.47;;;3.07;100.00
48652;BME280;34442;52.362;-1.302;2023-01-26T03:12:31;101718.34;;;3.03;100.00
48652;BME280;34442;52.362;-1.302;2023-01-26T03:14:57;101715.69;;;3.03;100.00
48652;BME280;34442;52.362;-1.302;2023-01-26T03:17:41;101716.16;;;3.08;100.00
48652;BME280;34442;52.362;-1.302;2023-01-26T03:20:08;101723.41;;;3.06;100.00
48652;BME280;34442;52.362;-1.302;2023-01-26T03:22:55;101725.47;;;3.02;100.00
48652;BME280;34442;52.362;-1.302;2023-01-26T03:25:39;101729.25;;;2.66;100.00
48652;BME280;34442;52.362;-1.302;2023-01-26T03:28:23;101725.16;;;2.62;100.00
48652;BME280;34442;52.362;-1.302;2023-01-26T03:30:49;101721.91;;;2.58;100.00
48652;BME280;34442;52.362;-1.302;2023-01-26T03:33:15;101716.81;;;2.89;100.00
48652;BME280;34442;52.362;-1.302;2023-01-26T03:35:41;101713.47;;;2.64;100.00
48652;BME280;34442;52.362;-1.302;2023-01-26T03:38:07;101709.22;;;2.62;100.00
48652;BME280;34442;52.362;-1.302;2023-01-26T03:40:32;101713.47;;;2.64;100.00
48652;BME280;34442;52.362;-1.302;2023-01-26T03:43:16;101716.34;;;2.61;100.00
48652;BME280;34442;52.362;-1.302;2023-01-26T03:46:05;101722.63;;;2.60;100.00
48652;BME280;34442;52.362;-1.302;2023-01-26T03:48:49;101721.53;;;2.63;100.00
48652;BME280;34442;52.362;-1.302;2023-01-26T03:51:33;101725.03;;;2.63;100.00
48652;BME280;34442;52.362;-1.302;2023-01-26T03:54:18;101724.44;;;2.60;100.00
48652;BME280;34442;52.362;-1.302;2023-01-26T03:57:02;101727.09;;;2.60;100.00
48652;BME280;34442;52.362;-1.302;2023-01-26T03:59:28;101735.16;;;2.58;100.00
48652;BME280;34442;52.362;-1.302;2023-01-26T04:02:08;101728.56;;;2.64;100.00
48652;BME280;34442;52.362;-1.302;2023-01-26T04:04:53;101727.09;;;2.60;100.00
48652;BME280;34442;52.362;-1.302;2023-01-26T04:07:38;101721.19;;;2.56;100.00
48652;BME280;34442;52.362;-1.302;2023-01-26T04:10:23;101715.47;;;2.83;100.00
48652;BME280;34442;52.362;-1.302;2023-01-26T04:12:48;101725.16;;;2.84;100.00
48652;BME280;34442;52.362;-1.302;2023-01-26T04:15:34;101732.75;;;2.89;100.00
48652;BME280;34442;52.362;-1.302;2023-01-26T04:18:18;101744.31;;;2.99;100.00
48652;BME280;34442;52.362;-1.302;2023-01-26T04:21:03;101739.84;;;2.99;100.00
48652;BME280;34442;52.362;-1.302;2023-01-26T04:23:49;101745.03;;;3.01;100.00
48652;BME280;34442;52.362;-1.302;2023-01-26T04:26:15;101741.16;;;3.05;100.00
48652;BME280;34442;52.362;-1.302;2023-01-26T04:28:40;101734.53;;;2.99;100.00
48652;BME280;34442;52.362;-1.302;2023-01-26T04:31:07;101731.25;;;3.07;100.00
48652;BME280;34442;52.362;-1.302;2023-01-26T04:33:32;101742.00;;;3.06;100.00
48652;BME280;34442;52.362;-1.302;2023-01-26T04:36:05;101740.56;;;3.13;100.00
48652;BME280;34442;52.362;-1.302;2023-01-26T04:38:31;101741.13;;;3.16;100.00
48652;BME280;34442;52.362;-1.302;2023-01-26T04:40:57;101745.56;;;3.27;100.00
48652;BME280;34442;52.362;-1.302;2023-01-26T04:43:22;101745.06;;;3.33;100.00
48652;BME280;34442;52.362;-1.302;2023-01-26T04:46:02;101752.19;;;3.33;100.00
48652;BME280;34442;52.362;-1.302;2023-01-26T04:48:28;101753.75;;;3.35;100.00
48652;BME280;34442;52.362;-1.302;2023-01-26T04:50:59;101750.13;;;3.36;100.00
48652;BME280;34442;52.362;-1.302;2023-01-26T04:53:25;101751.81;;;3.37;100.00
48652;BME280;34442;52.362;-1.302;2023-01-26T04:55:51;101748.59;;;3.34;100.00
48652;BME280;34442;52.362;-1.302;2023-01-26T04:58:17;101747.72;;;3.33;100.00
48652;BME280;34442;52.362;-1.302;2023-01-26T05:00:42;101748.44;;;3.35;100.00
48652;BME280;34442;52.362;-1.302;2023-01-26T05:03:08;101745.25;;;3.41;100.00
48652;BME280;34442;52.362;-1.302;2023-01-26T05:05:37;101740.53;;;3.45;100.00
48652;BME280;34442;52.362;-1.302;2023-01-26T05:08:05;101741.38;;;3.45;100.00
48652;BME280;34442;52.362;-1.302;2023-01-26T05:10:31;101746.84;;;3.44;100.00
48652;BME280;34442;52.362;-1.302;2023-01-26T05:12:57;101739.84;;;3.43;100.00
48652;BME280;34442;52.362;-1.302;2023-01-26T05:15:23;101751.91;;;3.47;100.00
48652;BME280;34442;52.362;-1.302;2023-01-26T05:17:48;101751.91;;;3.47;100.00
48652;BME280;34442;52.362;-1.302;2023-01-26T05:20:14;101742.94;;;3.16;100.00
48652;BME280;34442;52.362;-1.302;2023-01-26T05:22:40;101736.25;;;3.33;100.00
48652;BME280;34442;52.362;-1.302;2023-01-26T05:25:05;101744.94;;;3.35;100.00
48652;BME280;34442;52.362;-1.302;2023-01-26T05:27:31;101757.22;;;3.47;100.00
48652;BME280;34442;52.362;-1.302;2023-01-26T05:29:57;101741.38;;;3.45;100.00
48652;BME280;34442;52.362;-1.302;2023-01-26T05:32:29;101749.47;;;3.55;100.00
48652;BME280;34442;52.362;-1.302;2023-01-26T05:34:55;101755.47;;;3.57;100.00
48652;BME280;34442;52.362;-1.302;2023-01-26T05:37:23;101752.91;;;3.35;100.00
48652;BME280;34442;52.362;-1.302;2023-01-26T05:39:49;101752.16;;;3.44;100.00
48652;BME280;34442;52.362;-1.302;2023-01-26T05:42:14;101755.78;;;3.43;100.00
48652;BME280;34442;52.362;-1.302;2023-01-26T05:44:40;101758.06;;;3.47;100.00
48652;BME280;34442;52.362;-1.302;2023-01-26T05:47:05;101753.44;;;3.49;100.00
48652;BME280;34442;52.362;-1.302;2023-01-26T05:49:31;101759.16;;;3.45;100.00
48652;BME280;34442;52.362;-1.302;2023-01-26T05:51:57;101758.53;;;3.53;100.00
48652;BME280;34442;52.362;-1.302;2023-01-26T05:54:23;101760.22;;;3.54;100.00
48652;BME280;34442;52.362;-1.302;2023-01-26T05:56:48;101763.34;;;3.59;100.00
48652;BME280;34442;52.362;-1.302;2023-01-26T05:59:14;101764.19;;;3.59;100.00
48652;BME280;34442;52.362;-1.302;2023-01-26T06:01:40;101767.56;;;3.61;100.00
48652;BME280;34442;52.362;-1.302;2023-01-26T06:04:06;101776.75;;;3.57;100.00
48652;BME280;34442;52.362;-1.302;2023-01-26T06:06:31;101771.78;;;3.64;100.00
48652;BME280;34442;52.362;-1.302;2023-01-26T06:08:57;101772.63;;;3.64;100.00
48652;BME280;34442;52.362;-1.302;2023-01-26T06:11:23;101768.03;;;3.66;100.00
48652;BME280;34442;52.362;-1.302;2023-01-26T06:13:48;101771.25;;;3.70;100.00
48652;BME280;34442;52.362;-1.302;2023-01-26T06:16:14;101783.47;;;3.72;100.00
48652;BME280;34442;52.362;-1.302;2023-01-26T06:18:40;101782.00;;;3.80;100.00
48652;BME280;34442;52.362;-1.302;2023-01-26T06:21:05;101782.97;;;3.79;100.00
48652;BME280;34442;52.362;-1.302;2023-01-26T06:23:31;101789.13;;;3.79;100.00
48652;BME280;34442;52.362;-1.302;2023-01-26T06:26:00;101797.13;;;3.79;100.00
48652;BME280;34442;52.362;-1.302;2023-01-26T06:28:27;101786.34;;;3.81;100.00
48652;BME280;34442;52.362;-1.302;2023-01-26T06:31:01;101802.44;;;3.79;100.00
48652;BME280;34442;52.362;-1.302;2023-01-26T06:33:28;101798.66;;;3.82;100.00
48652;BME280;34442;52.362;-1.302;2023-01-26T06:35:54;101800.22;;;3.84;100.00
48652;BME280;34442;52.362;-1.302;2023-01-26T06:38:20;101799.38;;;3.84;100.00
48652;BME280;34442;52.362;-1.302;2023-01-26T06:40:46;101795.50;;;3.88;100.00
48652;BME280;34442;52.362;-1.302;2023-01-26T06:43:11;101793.69;;;3.88;100.00
48652;BME280;34442;52.362;-1.302;2023-01-26T06:45:37;101794.28;;;3.92;100.00
48652;BME280;34442;52.362;-1.302;2023-01-26T06:48:02;101794.13;;;3.93;100.00
48652;BME280;34442;52.362;-1.302;2023-01-26T06:50:33;101792.00;;;3.87;100.00
48652;BME280;34442;52.362;-1.302;2023-01-26T06:53:03;101802.25;;;3.92;100.00
48652;BME280;34442;52.362;-1.302;2023-01-26T06:55:35;101805.38;;;3.97;100.00
48652;BME280;34442;52.362;-1.302;2023-01-26T06:58:01;101809.13;;;3.94;100.00
48652;BME280;34442;52.362;-1.302;2023-01-26T07:00:27;101800.88;;;3.97;100.00
48652;BME280;34442;52.362;-1.302;2023-01-26T07:02:52;101816.41;;;3.92;100.00
48652;BME280;34442;52.362;-1.302;2023-01-26T07:05:18;101828.47;;;3.96;100.00
48652;BME280;34442;52.362;-1.302;2023-01-26T07:07:43;101825.56;;;4.00;100.00
48652;BME280;34442;52.362;-1.302;2023-01-26T07:10:10;101825.28;;;4.03;100.00
48652;BME280;34442;52.362;-1.302;2023-01-26T07:12:44;101833.75;;;4.08;100.00
48652;BME280;34442;52.362;-1.302;2023-01-26T07:15:11;101835.69;;;4.06;100.00
48652;BME280;34442;52.362;-1.302;2023-01-26T07:17:37;101839.06;;;4.08;100.00
48652;BME280;34442;52.362;-1.302;2023-01-26T07:20:03;101836.53;;;4.06;100.00
48652;BME280;34442;52.362;-1.302;2023-01-26T07:22:29;101840.75;;;4.09;100.00
48652;BME280;34442;52.362;-1.302;2023-01-26T07:24:55;101832.31;;;4.04;100.00
48652;BME280;34442;52.362;-1.302;2023-01-26T07:27:20;101835.47;;;3.97;100.00
48652;BME280;34442;52.362;-1.302;2023-01-26T07:29:45;101829.91;;;4.01;100.00
48652;BME280;34442;52.362;-1.302;2023-01-26T07:32:11;101826.25;;;4.02;100.00
48652;BME280;34442;52.362;-1.302;2023-01-26T07:34:36;101815.63;;;4.02;100.00
48652;BME280;34442;52.362;-1.302;2023-01-26T07:37:02;101815.75;;;4.00;100.00
48652;BME280;34442;52.362;-1.302;2023-01-26T07:39:29;101812.25;;;4.00;100.00
48652;BME280;34442;52.362;-1.302;2023-01-26T07:41:55;101827.25;;;4.01;100.00
48652;BME280;34442;52.362;-1.302;2023-01-26T07:44:20;101838.47;;;4.04;100.00
48652;BME280;34442;52.362;-1.302;2023-01-26T07:46:45;101839.06;;;4.08;100.00
48652;BME280;34442;52.362;-1.302;2023-01-26T07:49:11;101834.84;;;4.05;100.00
48652;BME280;34442;52.362;-1.302;2023-01-26T07:51:37;101830.50;;;4.04;100.00
48652;BME280;34442;52.362;-1.302;2023-01-26T07:54:04;101815.38;;;4.05;100.00
48652;BME280;34442;52.362;-1.302;2023-01-26T07:56:30;101820.25;;;4.00;100.00
48652;BME280;34442;52.362;-1.302;2023-01-26T07:58:56;101812.97;;;4.02;100.00
48652;BME280;34442;52.362;-1.302;2023-01-26T08:01:22;101820.59;;;3.95;100.00
48652;BME280;34442;52.362;-1.302;2023-01-26T08:03:49;101822.34;;;3.85;100.00
48652;BME280;34442;52.362;-1.302;2023-01-26T08:06:15;101826.59;;;3.87;100.00
48652;BME280;34442;52.362;-1.302;2023-01-26T08:08:41;101833.44;;;3.90;100.00
48652;BME280;34442;52.362;-1.302;2023-01-26T08:11:08;101842.03;;;3.93;100.00
48652;BME280;34442;52.362;-1.302;2023-01-26T08:13:34;101842.63;;;3.97;100.00
48652;BME280;34442;52.362;-1.302;2023-01-26T08:16:05;101840.16;;;4.05;100.00
48652;BME280;34442;52.362;-1.302;2023-01-26T08:18:31;101848.34;;;4.13;100.00
48652;BME280;34442;52.362;-1.302;2023-01-26T08:20:57;101848.81;;;4.18;100.00
48652;BME280;34442;52.362;-1.302;2023-01-26T08:23:23;101845.16;;;4.19;100.00
48652;BME280;34442;52.362;-1.302;2023-01-26T08:25:48;101844.59;;;4.16;100.00
48652;BME280;34442;52.362;-1.302;2023-01-26T08:28:14;101844.59;;;4.16;100.00
48652;BME280;34442;52.362;-1.302;2023-01-26T08:30:40;101853.66;;;4.13;100.00
48652;BME280;34442;52.362;-1.302;2023-01-26T08:33:06;101854.38;;;4.15;100.00
48652;BME280;34442;52.362;-1.302;2023-01-26T08:35:32;101863.97;;;4.07;100.00
48652;BME280;34442;52.362;-1.302;2023-01-26T08:37:58;101857.41;;;4.11;100.00
48652;BME280;34442;52.362;-1.302;2023-01-26T08:40:23;101861.19;;;4.08;100.00
48652;BME280;34442;52.362;-1.302;2023-01-26T08:42:50;101868.06;;;4.11;100.00
48652;BME280;34442;52.362;-1.302;2023-01-26T08:45:16;101865.88;;;4.16;100.00
48652;BME280;34442;52.362;-1.302;2023-01-26T08:47:42;101869.84;;;4.21;100.00
48652;BME280;34442;52.362;-1.302;2023-01-26T08:50:08;101873.09;;;4.25;100.00
48652;BME280;34442;52.362;-1.302;2023-01-26T08:52:33;101875.13;;;4.33;100.00
48652;BME280;34442;52.362;-1.302;2023-01-26T08:54:59;101873.28;;;4.33;100.00
48652;BME280;34442;52.362;-1.302;2023-01-26T08:57:26;101871.22;;;4.37;100.00
48652;BME280;34442;52.362;-1.302;2023-01-26T08:59:51;101874.47;;;4.40;100.00
48652;BME280;34442;52.362;-1.302;2023-01-26T09:02:17;101874.47;;;4.40;100.00
48652;BME280;34442;52.362;-1.302;2023-01-26T09:04:42;101877.19;;;4.29;100.00
48652;BME280;34442;52.362;-1.302;2023-01-26T09:07:08;101879.06;;;4.38;100.00
48652;BME280;34442;52.362;-1.302;2023-01-26T09:09:34;101885.25;;;4.39;100.00
48652;BME280;34442;52.362;-1.302;2023-01-26T09:11:59;101884.25;;;4.40;100.00
48652;BME280;34442;52.362;-1.302;2023-01-26T09:14:25;101883.09;;;4.33;100.00
48652;BME280;34442;52.362;-1.302;2023-01-26T09:16:52;101884.66;;;4.35;100.00
48652;BME280;34442;52.362;-1.302;2023-01-26T09:19:17;101879.22;;;4.37;100.00
48652;BME280;34442;52.362;-1.302;2023-01-26T09:21:43;101886.81;;;4.62;100.00
48652;BME280;34442;52.362;-1.302;2023-01-26T09:24:08;101883.16;;;4.63;100.00
48652;BME280;34442;52.362;-1.302;2023-01-26T09:26:34;101887.88;;;4.81;100.00
48652;BME280;34442;52.362;-1.302;2023-01-26T09:28:59;101883.97;;;4.85;100.00
48652;BME280;34442;52.362;-1.302;2023-01-26T09:31:25;101886.38;;;4.88;100.00
48652;BME280;34442;52.362;-1.302;2023-01-26T09:33:50;101894.38;;;4.88;100.00
48652;BME280;34442;52.362;-1.302;2023-01-26T09:36:17;101890.00;;;5.08;100.00
48652;BME280;34442;52.362;-1.302;2023-01-26T09:38:42;101883.41;;;5.12;100.00
48652;BME280;34442;52.362;-1.302;2023-01-26T09:43:56;101891.06;;;4.95;100.00
48652;BME280;34442;52.362;-1.302;2023-01-26T09:46:45;101894.97;;;4.91;100.00
48652;BME280;34442;52.362;-1.302;2023-01-26T09:49:30;101892.75;;;4.96;100.00
48652;BME280;34442;52.362;-1.302;2023-01-26T09:52:07;101899.13;;;4.84;100.00
48652;BME280;34442;52.362;-1.302;2023-01-26T09:57:16;101896.59;;;4.83;100.00
48652;BME280;34442;52.362;-1.302;2023-01-26T09:59:52;101889.06;;;4.88;100.00
48652;BME280;34442;52.362;-1.302;2023-01-26T10:03:02;101892.88;;;4.95;100.00
48652;BME280;34442;52.362;-1.302;2023-01-26T10:05:29;101911.41;;;4.96;100.00
48652;BME280;34442;52.362;-1.302;2023-01-26T10:07:56;101908.88;;;4.95;100.00
48652;BME280;34442;52.362;-1.302;2023-01-26T10:10:31;101904.63;;;4.92;100.00
48652;BME280;34442;52.362;-1.302;2023-01-26T10:12:59;101906.03;;;4.87;100.00
48652;BME280;34442;52.362;-1.302;2023-01-26T10:15:38;101911.97;;;5.00;100.00
48652;BME280;34442;52.362;-1.302;2023-01-26T10:18:12;101907.00;;;5.16;100.00
48652;BME280;34442;52.362;-1.302;2023-01-26T10:20:52;101899.50;;;5.31;100.00
48652;BME280;34442;52.362;-1.302;2023-01-26T10:23:22;101902.63;;;5.46;100.00
48652;BME280;34442;52.362;-1.302;2023-01-26T10:25:49;101908.13;;;5.54;100.00
48652;BME280;34442;52.362;-1.302;2023-01-26T10:28:26;101911.53;;;5.66;100.00
48652;BME280;34442;52.362;-1.302;2023-01-26T10:30:56;101921.03;;;5.49;100.00
48652;BME280;34442;52.362;-1.302;2023-01-26T10:33:33;101922.28;;;5.55;100.00
48652;BME280;34442;52.362;-1.302;2023-01-26T10:36:10;101932.00;;;5.56;100.00
48652;BME280;34442;52.362;-1.302;2023-01-26T10:41:06;101919.69;;;5.74;100.00
48652;BME280;34442;52.362;-1.302;2023-01-26T10:43:36;101920.16;;;5.89;100.00
48652;BME280;34442;52.362;-1.302;2023-01-26T10:46:03;101921.28;;;5.96;100.00
48652;BME280;34442;52.362;-1.302;2023-01-26T10:48:29;101924.50;;;5.90;100.00
48652;BME280;34442;52.362;-1.302;2023-01-26T10:51:14;101927.72;;;5.84;100.00
48652;BME280;34442;52.362;-1.302;2023-01-26T10:53:39;101922.03;;;5.98;100.00
48652;BME280;34442;52.362;-1.302;2023-01-26T10:56:23;101918.59;;;5.86;100.00
48652;BME280;34442;52.362;-1.302;2023-01-26T10:58:51;101923.53;;;6.01;100.00
48652;BME280;34442;52.362;-1.302;2023-01-26T11:01:19;101930.16;;;5.96;100.00
48652;BME280;34442;52.362;-1.302;2023-01-26T11:04:00;101930.56;;;5.92;100.00
48652;BME280;34442;52.362;-1.302;2023-01-26T11:06:28;101922.78;;;5.79;100.00
48652;BME280;34442;52.362;-1.302;2023-01-26T11:09:08;101926.59;;;5.86;100.00
48652;BME280;34442;52.362;-1.302;2023-01-26T11:11:34;101923.28;;;6.04;100.00
48652;BME280;34442;52.362;-1.302;2023-01-26T11:14:19;101927.66;;;6.24;100.00
48652;BME280;34442;52.362;-1.302;2023-01-26T11:17:04;101929.75;;;6.01;100.00
48652;BME280;34442;52.362;-1.302;2023-01-26T11:20:06;101917.53;;;6.18;100.00
48652;BME280;34442;52.362;-1.302;2023-01-26T11:25:24;101908.09;;;6.33;100.00
48652;BME280;34442;52.362;-1.302;2023-01-26T11:38:39;101918.28;;;5.80;100.00
48652;BME280;34442;52.362;-1.302;2023-01-26T11:41:33;101918.28;;;5.80;100.00
48652;BME280;34442;52.362;-1.302;2023-01-26T11:44:44;101911.94;;;5.71;100.00
48652;BME280;34442;52.362;-1.302;2023-01-26T11:50:23;101912.72;;;5.92;100.00
48652;BME280;34442;52.362;-1.302;2023-01-26T11:58:59;101909.25;;;6.11;100.00
48652;BME280;34442;52.362;-1.302;2023-01-26T12:01:30;101919.91;;;6.11;100.00
48652;BME280;34442;52.362;-1.302;2023-01-26T12:03:58;101912.91;;;6.20;100.00
48652;BME280;34442;52.362;-1.302;2023-01-26T12:08:57;101915.44;;;6.31;100.00
48652;BME280;34442;52.362;-1.302;2023-01-26T12:11:28;101909.25;;;6.40;100.00
48652;BME280;34442;52.362;-1.302;2023-01-26T12:16:33;101893.63;;;6.36;100.00
48652;BME280;34442;52.362;-1.302;2023-01-26T12:21:37;101895.63;;;6.34;100.00
48652;BME280;34442;52.362;-1.302;2023-01-26T12:24:08;101894.19;;;6.39;100.00
48652;BME280;34442;52.362;-1.302;2023-01-26T12:26:41;101896.31;;;6.36;100.00
48652;BME280;34442;52.362;-1.302;2023-01-26T12:29:29;101899.84;;;6.46;100.00
48652;BME280;34442;52.362;-1.302;2023-01-26T12:32:12;101890.41;;;6.52;100.00
48652;BME280;34442;52.362;-1.302;2023-01-26T12:34:38;101887.44;;;6.55;100.00
48652;BME280;34442;52.362;-1.302;2023-01-26T12:45:17;101877.00;;;6.71;100.00
48652;BME280;34442;52.362;-1.302;2023-01-26T12:47:58;101872.38;;;6.63;100.00
48652;BME280;34442;52.362;-1.302;2023-01-26T12:50:37;101874.63;;;6.58;100.00
48652;BME280;34442;52.362;-1.302;2023-01-26T12:58:22;101887.44;;;6.55;100.00
48652;BME280;34442;52.362;-1.302;2023-01-26T13:00:55;101887.25;;;6.66;100.00
48652;BME280;34442;52.362;-1.302;2023-01-26T13:03:28;101884.31;;;6.69;100.00
48652;BME280;34442;52.362;-1.302;2023-01-26T13:05:59;101875.72;;;6.75;100.00
48652;BME280;34442;52.362;-1.302;2023-01-26T13:11:01;101868.91;;;6.90;100.00
48652;BME280;34442;52.362;-1.302;2023-01-26T13:13:54;101858.75;;;7.04;100.00
48652;BME280;34442;52.362;-1.302;2023-01-26T13:16:33;101869.63;;;6.83;100.00
48652;BME280;34442;52.362;-1.302;2023-01-26T13:19:00;101879.06;;;6.87;100.00
48652;BME280;34442;52.362;-1.302;2023-01-26T13:26:47;101866.06;;;6.45;100.00
48652;BME280;34442;52.362;-1.302;2023-01-26T13:31:52;101868.22;;;6.22;100.00
48652;BME280;34442;52.362;-1.302;2023-01-26T13:34:23;101871.72;;;6.32;100.00
48652;BME280;34442;52.362;-1.302;2023-01-26T13:36:52;101868.19;;;6.32;100.00
48652;BME280;34442;52.362;-1.302;2023-01-26T13:39:30;101857.63;;;6.59;100.00
48652;BME280;34442;52.362;-1.302;2023-01-26T13:41:55;101867.31;;;6.60;100.00
48652;BME280;34442;52.362;-1.302;2023-01-26T13:44:43;101875.47;;;6.49;100.00
48652;BME280;34442;52.362;-1.302;2023-01-26T13:47:18;101877.19;;;6.40;100.00
48652;BME280;34442;52.362;-1.302;2023-01-26T13:49:44;101872.81;;;6.49;100.00
48652;BME280;34442;52.362;-1.302;2023-01-26T13:52:28;101866.16;;;6.72;100.00
48652;BME280;34442;52.362;-1.302;2023-01-26T13:54:55;101862.38;;;6.65;100.00
48652;BME280;34442;52.362;-1.302;2023-01-26T13:57:27;101869.00;;;6.71;100.00
48652;BME280;34442;52.362;-1.302;2023-01-26T13:59:57;101877.22;;;6.31;100.00
48652;BME280;34442;52.362;-1.302;2023-01-26T14:02:32;101882.81;;;6.37;100.00